createdAt,value
2023-05-07T00:00:30.961Z,24.58
2023-05-07T00:02:57.827Z,24.95
2023-05-07T00:05:24.752Z,24.33
2023-05-07T00:07:59.523Z,31.02
2023-05-07T00:10:27.228Z,26.33
2023-05-07T00:12:54.059Z,29.05
2023-05-07T00:15:20.912Z,30.67
2023-05-07T00:17:47.818Z,27.75
2023-05-07T00:20:14.608Z,27.25
2023-05-07T00:22:41.467Z,28.95
2023-05-07T00:25:08.915Z,25.33
2023-05-07T00:27:35.890Z,27.30
2023-05-07T00:30:02.617Z,30.05
2023-05-07T00:32:30.216Z,27.45
2023-05-07T00:34:56.965Z,29.98
2023-05-07T00:37:23.719Z,26.02
2023-05-07T00:39:50.598Z,26.65
2023-05-07T00:42:17.396Z,25.83
2023-05-07T00:44:44.186Z,27.92
2023-05-07T00:47:11.622Z,26.42
2023-05-07T00:49:47.414Z,25.17
2023-05-07T00:52:18.268Z,28.88
2023-05-07T00:54:46.131Z,24.60
2023-05-07T01:09:51.588Z,25.85
2023-05-07T01:41:33.213Z,29.40
2023-05-07T01:47:50.408Z,26.52
2023-05-07T02:06:16.235Z,27.80
2023-05-07T02:12:43.734Z,23.15
2023-05-07T02:31:42.124Z,25.63
2023-05-07T02:35:18.926Z,20.58
2023-05-07T02:54:51.573Z,23.25
2023-05-07T03:46:29.252Z,17.65
2023-05-07T03:52:56.417Z,21.92
2023-05-07T04:20:10.186Z,31.65
2023-05-07T04:51:39.278Z,19.55
2023-05-07T04:58:50.863Z,17.45
2023-05-07T05:05:18.825Z,17.55
2023-05-07T05:07:48.239Z,17.35
2023-05-07T05:11:01.702Z,19.23
2023-05-07T05:37:06.376Z,16.30
2023-05-07T05:55:36.137Z,19.70
2023-05-07T06:42:11.825Z,16.65
2023-05-07T06:53:08.560Z,14.95
2023-05-07T06:59:22.431Z,17.25
2023-05-07T07:10:14.309Z,16.52
2023-05-07T07:35:44.162Z,19.25
2023-05-07T07:46:50.639Z,19.75
2023-05-07T07:49:17.731Z,15.05
2023-05-07T07:51:44.897Z,17.30
2023-05-07T07:54:12.996Z,17.90
2023-05-07T07:56:39.819Z,17.90
2023-05-07T07:59:06.777Z,21.75
2023-05-07T08:01:33.924Z,18.70
2023-05-07T08:04:01.937Z,18.25
2023-05-07T08:06:28.862Z,21.73
2023-05-07T08:08:56.128Z,17.38
2023-05-07T08:11:22.960Z,16.67
2023-05-07T08:13:49.830Z,20.98
2023-05-07T08:16:16.740Z,17.15
2023-05-07T08:18:43.597Z,18.02
2023-05-07T08:21:10.435Z,18.80
2023-05-07T08:23:37.275Z,17.65
2023-05-07T08:26:04.084Z,15.18
2023-05-07T08:28:30.999Z,15.48
2023-05-07T08:31:02.342Z,17.40
2023-05-07T08:33:29.398Z,16.90
2023-05-07T08:35:56.255Z,16.95
2023-05-07T08:38:23.147Z,16.35
2023-05-07T08:40:59.202Z,18.10
2023-05-07T08:43:32.859Z,15.25
2023-05-07T08:46:03.354Z,15.05
2023-05-07T08:48:33.874Z,16.77
2023-05-07T08:51:01.121Z,21.43
2023-05-07T08:53:28.275Z,18.33
2023-05-07T08:55:55.609Z,15.95
2023-05-07T08:58:23.286Z,15.82
2023-05-07T09:00:50.844Z,18.83
2023-05-07T09:03:17.832Z,14.50
2023-05-07T09:05:45.158Z,17.80
2023-05-07T09:10:49.878Z,15.23
2023-05-07T09:13:19.201Z,17.25
2023-05-07T09:15:48.324Z,16.90
2023-05-07T09:18:16.712Z,15.65
2023-05-07T09:20:43.753Z,18.85
2023-05-07T09:23:10.695Z,15.73
2023-05-07T09:25:38.011Z,14.38
2023-05-07T09:28:08.180Z,14.20
2023-05-07T09:30:36.577Z,13.52
2023-05-07T09:33:05.173Z,14.38
2023-05-07T09:35:32.057Z,13.30
2023-05-07T09:38:03.080Z,14.88
2023-05-07T09:40:32.339Z,12.85
2023-05-07T09:43:11.116Z,12.60
2023-05-07T09:45:40.344Z,14.65
2023-05-07T09:48:09.015Z,11.77
2023-05-07T09:50:47.567Z,9.68
2023-05-07T09:53:17.050Z,11.23
2023-05-07T09:55:48.926Z,12.05
2023-05-07T09:58:22.935Z,10.15
2023-05-07T10:00:51.369Z,12.75
2023-05-07T10:03:20.257Z,11.18
2023-05-07T10:05:49.004Z,14.48
2023-05-07T10:08:22.426Z,12.20
2023-05-07T10:10:55.446Z,13.25
2023-05-07T10:13:23.040Z,15.73
2023-05-07T10:15:51.570Z,17.85
2023-05-07T10:18:23.642Z,15.70
2023-05-07T10:20:53.528Z,19.05
2023-05-07T10:23:24.886Z,17.92
2023-05-07T10:25:55.390Z,16.25
2023-05-07T10:28:30.895Z,18.38
2023-05-07T10:33:41.143Z,15.13
2023-05-07T10:36:09.915Z,14.60
2023-05-07T10:38:37.042Z,20.23
2023-05-07T10:41:06.699Z,17.33
2023-05-07T10:43:44.290Z,19.90
2023-05-07T10:46:19.595Z,18.45
2023-05-07T10:49:02.009Z,18.90
2023-05-07T10:51:29.810Z,16.50
2023-05-07T10:54:12.017Z,16.88
2023-05-07T10:56:44.930Z,17.27
2023-05-07T10:59:34.320Z,19.92
2023-05-07T11:02:07.676Z,17.15
2023-05-07T11:04:38.153Z,18.50
2023-05-07T11:09:53.829Z,19.13
2023-05-07T11:12:45.674Z,18.95
2023-05-07T11:15:17.179Z,19.17
2023-05-07T11:18:01.113Z,19.75
2023-05-07T11:23:50.495Z,19.92
2023-05-07T11:34:29.723Z,15.75
2023-05-07T11:37:02.233Z,17.98
2023-05-07T11:39:35.337Z,15.18
2023-05-07T11:42:02.943Z,13.40
2023-05-07T11:44:47.238Z,13.32
2023-05-07T11:47:20.935Z,14.50
2023-05-07T11:49:49.701Z,14.48
2023-05-07T11:52:18.119Z,15.10
2023-05-07T11:54:56.015Z,15.98
2023-05-07T11:57:24.759Z,15.48
2023-05-07T12:00:00.747Z,13.13
2023-05-07T12:02:29.131Z,12.48
2023-05-07T12:04:56.679Z,13.52
2023-05-07T12:07:29.099Z,12.98
2023-05-07T12:09:56.047Z,15.63
2023-05-07T12:12:23.000Z,14.73
2023-05-07T12:14:50.984Z,14.52
2023-05-07T12:17:18.131Z,13.80
2023-05-07T12:19:46.302Z,11.68
2023-05-07T12:22:14.131Z,13.25
2023-05-07T12:24:58.358Z,12.60
2023-05-07T12:27:26.117Z,12.52
2023-05-07T12:29:53.884Z,13.90
2023-05-07T12:32:22.576Z,12.65
2023-05-07T12:34:53.054Z,14.68
2023-05-07T12:37:44.541Z,15.50
2023-05-07T12:40:12.358Z,12.63
2023-05-07T12:42:41.599Z,13.75
2023-05-07T12:45:21.974Z,11.00
2023-05-07T12:47:49.053Z,13.30
2023-05-07T12:50:17.134Z,13.82
2023-05-07T12:52:49.467Z,12.40
2023-05-07T12:55:17.492Z,12.40
2023-05-07T12:57:49.407Z,14.32
2023-05-07T13:00:17.043Z,11.73
2023-05-07T13:02:45.684Z,13.38
2023-05-07T13:05:13.274Z,12.68
2023-05-07T13:07:42.223Z,11.65
2023-05-07T13:10:10.042Z,12.40
2023-05-07T13:12:37.087Z,16.02
2023-05-07T13:15:04.255Z,11.23
2023-05-07T13:17:35.514Z,12.80
2023-05-07T13:20:05.095Z,14.60
2023-05-07T13:22:31.850Z,11.60
2023-05-07T13:24:58.671Z,12.63
2023-05-07T13:27:25.861Z,11.38
2023-05-07T13:29:52.755Z,10.18
2023-05-07T13:32:19.739Z,11.38
2023-05-07T13:34:47.974Z,9.93
2023-05-07T13:37:26.196Z,12.23
2023-05-07T13:39:56.062Z,10.48
2023-05-07T13:42:22.934Z,10.27
2023-05-07T13:44:50.325Z,10.90
2023-05-07T13:47:17.231Z,9.40
2023-05-07T13:49:44.113Z,12.57
2023-05-07T13:52:11.623Z,11.05
2023-05-07T13:54:38.866Z,13.65
2023-05-07T13:57:06.279Z,12.73
2023-05-07T13:59:33.106Z,13.48
2023-05-07T14:01:59.848Z,7.82
2023-05-07T14:04:26.914Z,7.93
2023-05-07T14:06:56.328Z,8.23
2023-05-07T14:09:23.244Z,7.82
2023-05-07T14:11:52.252Z,8.30
2023-05-07T14:14:20.334Z,9.05
2023-05-07T14:16:49.418Z,9.85
2023-05-07T14:21:59.555Z,8.57
2023-05-07T14:24:38.308Z,9.55
2023-05-07T14:27:06.849Z,8.98
2023-05-07T14:29:34.444Z,11.95
2023-05-07T14:32:01.407Z,10.13
2023-05-07T14:34:28.459Z,11.60
2023-05-07T14:36:56.336Z,8.20
2023-05-07T14:39:23.209Z,9.40
2023-05-07T14:41:50.004Z,13.07
2023-05-07T14:44:16.885Z,10.38
2023-05-07T14:46:43.927Z,10.40
2023-05-07T14:49:21.648Z,10.90
2023-05-07T14:51:48.720Z,9.05
2023-05-07T14:54:15.828Z,10.13
2023-05-07T14:56:43.278Z,8.32
2023-05-07T14:59:10.942Z,7.20
2023-05-07T15:01:38.050Z,9.88
2023-05-07T15:04:06.199Z,9.45
2023-05-07T15:06:35.546Z,7.93
2023-05-07T15:09:02.382Z,11.43
2023-05-07T15:11:29.161Z,8.48
2023-05-07T15:13:56.190Z,9.15
2023-05-07T15:16:23.474Z,7.72
2023-05-07T15:18:50.390Z,9.65
2023-05-07T15:21:17.503Z,7.72
2023-05-07T15:23:45.497Z,6.60
2023-05-07T15:26:12.415Z,11.30
2023-05-07T15:28:40.375Z,11.07
2023-05-07T15:31:08.034Z,9.68
2023-05-07T15:33:34.995Z,10.15
2023-05-07T15:36:02.766Z,7.22
2023-05-07T15:38:29.843Z,6.15
2023-05-07T15:40:56.798Z,8.13
2023-05-07T15:43:23.768Z,8.38
2023-05-07T15:45:50.913Z,8.75
2023-05-07T15:48:17.936Z,7.28
2023-05-07T15:50:44.849Z,8.77
2023-05-07T15:53:13.706Z,9.13
2023-05-07T15:55:43.236Z,8.07
2023-05-07T15:58:10.778Z,7.43
2023-05-07T16:00:40.800Z,7.38
2023-05-07T16:03:09.011Z,10.13
2023-05-07T16:05:36.011Z,9.55
2023-05-07T16:08:04.131Z,7.85
2023-05-07T16:10:31.528Z,7.35
2023-05-07T16:12:58.567Z,7.07
2023-05-07T16:15:25.646Z,7.35
2023-05-07T16:17:57.858Z,6.60
2023-05-07T16:20:31.681Z,10.38
2023-05-07T16:22:59.582Z,9.38
2023-05-07T16:25:26.535Z,7.88
2023-05-07T16:27:56.503Z,7.57
2023-05-07T16:30:23.357Z,9.20
2023-05-07T16:32:50.826Z,12.57
2023-05-07T16:35:18.025Z,13.05
2023-05-07T16:37:45.232Z,13.20
2023-05-07T16:42:39.613Z,11.05
2023-05-07T16:45:07.032Z,11.95
2023-05-07T16:47:33.990Z,12.32
2023-05-07T16:50:01.310Z,11.55
2023-05-07T16:52:30.159Z,12.50
2023-05-07T16:55:00.815Z,11.80
2023-05-07T16:57:29.229Z,11.90
2023-05-07T16:59:57.158Z,15.55
2023-05-07T17:02:25.017Z,15.82
2023-05-07T17:04:51.826Z,14.30
2023-05-07T17:07:22.244Z,13.88
2023-05-07T17:09:53.699Z,12.53
2023-05-07T17:12:21.984Z,13.60
2023-05-07T17:14:48.835Z,14.65
2023-05-07T17:17:15.732Z,11.93
2023-05-07T17:19:42.588Z,11.82
2023-05-07T17:22:09.733Z,12.90
2023-05-07T17:24:36.598Z,11.20
2023-05-07T17:32:12.140Z,12.80
2023-05-07T17:34:39.025Z,12.52
2023-05-07T17:37:07.980Z,12.77
2023-05-07T17:39:35.048Z,13.25
2023-05-07T17:42:03.143Z,15.13
2023-05-07T17:44:30.919Z,13.50
2023-05-07T17:46:59.221Z,12.60
2023-05-07T17:49:46.739Z,15.82
2023-05-07T17:52:13.607Z,16.85
2023-05-07T17:54:40.746Z,17.70
2023-05-07T17:57:08.791Z,16.55
2023-05-07T17:59:35.527Z,20.80
2023-05-07T18:02:02.375Z,14.93
2023-05-07T18:04:29.433Z,16.45
2023-05-07T18:06:57.905Z,14.57
2023-05-07T18:09:25.199Z,15.32
2023-05-07T18:11:52.175Z,15.60
2023-05-07T18:14:25.008Z,13.73
2023-05-07T18:16:52.098Z,14.93
2023-05-07T18:19:19.037Z,15.65
2023-05-07T18:21:45.886Z,19.98
2023-05-07T18:24:12.860Z,16.95
2023-05-07T18:26:39.711Z,19.02
2023-05-07T18:29:06.478Z,22.80
2023-05-07T18:31:35.960Z,24.40
2023-05-07T18:34:04.312Z,22.90
2023-05-07T18:36:32.109Z,18.98
2023-05-07T18:39:02.605Z,17.42
2023-05-07T18:41:31.940Z,19.63
2023-05-07T18:44:01.047Z,20.42
2023-05-07T18:46:29.566Z,17.58
2023-05-07T18:57:58.288Z,19.85
2023-05-07T19:00:26.080Z,16.60
2023-05-07T19:05:35.263Z,16.98
2023-05-07T19:08:02.673Z,18.83
2023-05-07T19:10:30.661Z,18.23
2023-05-07T19:12:57.884Z,18.25
2023-05-07T19:15:25.489Z,20.00
2023-05-07T19:17:52.249Z,16.17
2023-05-07T19:20:19.466Z,17.08
2023-05-07T19:22:47.139Z,19.08
2023-05-07T19:25:16.486Z,17.88
2023-05-07T19:27:43.596Z,20.02
2023-05-07T19:30:19.583Z,17.80
2023-05-07T19:33:12.654Z,16.40
2023-05-07T19:38:41.762Z,20.75
2023-05-07T19:43:47.403Z,14.88
2023-05-07T19:46:15.158Z,16.35
2023-05-07T19:48:42.454Z,13.48
2023-05-07T19:51:20.839Z,16.13
2023-05-07T19:56:28.874Z,13.90
2023-05-07T19:58:57.941Z,17.13
2023-05-07T20:01:28.688Z,16.40
2023-05-07T20:04:03.527Z,18.75
2023-05-07T20:06:40.658Z,17.30
2023-05-07T20:09:10.406Z,17.50
2023-05-07T20:14:27.693Z,16.07
2023-05-07T20:16:54.585Z,17.00
2023-05-07T20:19:25.159Z,17.98
2023-05-07T20:27:22.275Z,16.73
2023-05-07T20:29:49.357Z,14.15
2023-05-07T20:32:17.346Z,16.08
2023-05-07T20:34:56.340Z,14.90
2023-05-07T20:37:23.527Z,16.63
2023-05-07T20:39:50.897Z,15.75
2023-05-07T20:42:19.473Z,16.98
2023-05-07T20:44:47.020Z,16.15
2023-05-07T20:47:15.574Z,15.90
2023-05-07T20:49:42.918Z,13.35
2023-05-07T20:52:10.010Z,13.05
2023-05-07T20:54:40.496Z,13.73
2023-05-07T20:57:07.576Z,12.57
2023-05-07T20:59:40.255Z,11.98
2023-05-07T21:04:51.911Z,11.55
2023-05-07T21:07:27.544Z,14.77
2023-05-07T21:09:54.638Z,13.20
2023-05-07T21:12:22.655Z,10.88
2023-05-07T21:14:50.011Z,11.48
2023-05-07T21:17:16.964Z,12.55
2023-05-07T21:19:44.005Z,11.50
2023-05-07T21:22:10.977Z,10.75
2023-05-07T21:24:38.178Z,11.45
2023-05-07T21:27:05.545Z,13.45
2023-05-07T21:29:33.113Z,12.20
2023-05-07T21:32:02.116Z,14.35
2023-05-07T21:34:29.122Z,10.55
2023-05-07T21:36:56.229Z,16.83
2023-05-07T21:39:24.766Z,6.22
2023-05-07T21:41:51.624Z,14.25
2023-05-07T21:44:19.083Z,3.72
2023-05-07T21:46:45.975Z,5.60
2023-05-07T21:49:12.876Z,4.55
2023-05-07T21:51:39.826Z,1.80
2023-05-07T21:54:07.116Z,5.22
2023-05-07T21:56:34.313Z,2.88
2023-05-07T21:59:01.187Z,3.13
2023-05-07T22:01:27.992Z,2.83
2023-05-07T22:03:55.445Z,2.15
2023-05-07T22:06:22.758Z,3.78
2023-05-07T22:08:50.030Z,1.80
2023-05-07T22:11:17.206Z,2.70
2023-05-07T22:13:44.364Z,3.65
2023-05-07T22:16:11.257Z,1.92
2023-05-07T22:18:38.116Z,2.65
2023-05-07T22:21:05.185Z,5.22
2023-05-07T22:23:31.974Z,5.32
2023-05-07T22:25:58.837Z,3.45
2023-05-07T22:28:25.900Z,2.97
2023-05-07T22:30:52.657Z,2.42
2023-05-07T22:33:19.484Z,2.65
2023-05-07T22:35:46.300Z,5.10
2023-05-07T22:38:13.082Z,4.10
2023-05-07T22:40:39.833Z,1.85
2023-05-07T22:43:06.591Z,3.05
2023-05-07T22:45:33.347Z,1.92
2023-05-07T22:48:00.259Z,1.85
2023-05-07T22:50:27.059Z,2.08
2023-05-07T22:52:53.893Z,2.40
2023-05-07T22:55:20.861Z,2.33
2023-05-07T22:57:47.626Z,2.58
2023-05-07T23:00:14.958Z,3.47
2023-05-07T23:02:41.861Z,2.47
2023-05-07T23:05:08.908Z,3.00
2023-05-07T23:07:35.694Z,2.50
2023-05-07T23:10:02.736Z,4.03
2023-05-07T23:12:29.614Z,2.40
2023-05-07T23:14:56.420Z,2.25
2023-05-07T23:17:23.345Z,4.32
2023-05-07T23:19:50.404Z,3.30
2023-05-07T23:22:17.338Z,2.15
2023-05-07T23:24:44.541Z,3.88
2023-05-07T23:27:11.437Z,2.50
2023-05-07T23:29:38.256Z,2.33
2023-05-07T23:32:05.098Z,3.13
2023-05-07T23:34:31.839Z,4.03
2023-05-07T23:36:58.602Z,4.20
2023-05-07T23:39:25.481Z,3.00
2023-05-07T23:41:52.868Z,4.32
2023-05-07T23:44:19.697Z,4.63
2023-05-07T23:46:46.653Z,3.97
2023-05-07T23:49:13.477Z,3.97
2023-05-07T23:51:40.306Z,3.00
2023-05-07T23:54:07.288Z,2.70
2023-05-07T23:56:34.196Z,3.20
2023-05-07T23:59:01.200Z,2.10
